createdAt,value
2022-08-03T00:01:49.480Z,95.70
2022-08-03T00:04:16.759Z,95.60
2022-08-03T00:06:43.770Z,95.60
2022-08-03T00:09:10.851Z,95.70
2022-08-03T00:11:38.121Z,95.50
2022-08-03T00:14:06.077Z,95.80
2022-08-03T00:16:33.155Z,95.80
2022-08-03T00:19:01.118Z,96.10
2022-08-03T00:21:28.473Z,96.50
2022-08-03T00:23:55.180Z,96.10
2022-08-03T00:26:22.155Z,96.30
2022-08-03T00:28:49.626Z,96.40
2022-08-03T00:31:16.580Z,96.50
2022-08-03T00:33:58.839Z,97.40
2022-08-03T00:36:28.383Z,97.20
2022-08-03T00:38:56.351Z,96.60
2022-08-03T00:41:23.097Z,96.80
2022-08-03T00:43:49.702Z,96.80
2022-08-03T00:46:20.848Z,96.80
2022-08-03T00:48:53.524Z,96.90
2022-08-03T00:51:21.388Z,97.20
2022-08-03T00:53:48.281Z,97.70
2022-08-03T00:56:16.757Z,97.80
2022-08-03T00:58:47.054Z,98.10
2022-08-03T01:01:14.486Z,98.30
2022-08-03T01:03:41.480Z,98.30
2022-08-03T01:06:39.436Z,97.40
2022-08-03T01:09:18.376Z,97.50
2022-08-03T01:12:01.205Z,97.30
2022-08-03T01:14:38.248Z,97.20
2022-08-03T01:17:18.219Z,97.70
2022-08-03T01:19:58.262Z,98.00
2022-08-03T01:22:52.340Z,98.00
2022-08-03T01:25:56.494Z,97.80
2022-08-03T01:29:00.997Z,97.60
2022-08-03T01:32:53.305Z,98.10
2022-08-03T01:34:41.212Z,98.60
2022-08-03T01:37:10.771Z,98.70
2022-08-03T01:39:39.770Z,99.00
2022-08-03T01:42:08.151Z,99.20
2022-08-03T01:44:41.146Z,99.40
2022-08-03T01:47:08.502Z,99.30
2022-08-03T01:49:43.429Z,99.20
2022-08-03T01:52:11.845Z,99.00
2022-08-03T01:54:43.972Z,98.50
2022-08-03T01:57:11.628Z,98.40
2022-08-03T01:59:40.193Z,98.70
2022-08-03T02:02:28.311Z,99.20
2022-08-03T02:04:57.776Z,99.20
2022-08-03T02:07:27.775Z,99.40
2022-08-03T02:09:57.592Z,99.50
2022-08-03T02:12:26.595Z,99.80
2022-08-03T02:14:54.662Z,99.60
2022-08-03T02:17:39.694Z,99.00
2022-08-03T02:20:09.034Z,98.30
2022-08-03T02:22:40.254Z,98.90
2022-08-03T02:25:09.177Z,98.70
2022-08-03T02:27:43.191Z,98.40
2022-08-03T02:30:12.074Z,98.20
2022-08-03T02:32:42.414Z,98.60
2022-08-03T02:35:15.288Z,98.60
2022-08-03T02:37:49.769Z,98.80
2022-08-03T02:40:19.113Z,99.00
2022-08-03T02:42:49.339Z,99.30
2022-08-03T02:45:18.227Z,99.10
2022-08-03T02:47:53.828Z,99.60
2022-08-03T02:50:23.061Z,99.70
2022-08-03T02:52:51.040Z,99.90
2022-08-03T02:55:20.482Z,99.90
2022-08-03T02:57:48.116Z,99.90
2022-08-03T03:00:27.716Z,99.90
2022-08-03T03:02:58.387Z,99.80
2022-08-03T03:05:54.837Z,99.90
2022-08-03T03:08:20.947Z,99.90
2022-08-03T03:10:55.648Z,99.90
2022-08-03T03:13:23.401Z,99.90
2022-08-03T03:15:51.962Z,99.90
2022-08-03T03:18:22.582Z,99.50
2022-08-03T03:20:51.550Z,99.90
2022-08-03T03:23:19.325Z,99.80
2022-08-03T03:25:46.541Z,99.90
2022-08-03T03:28:13.512Z,99.90
2022-08-03T03:30:40.211Z,99.90
2022-08-03T03:33:07.509Z,99.90
2022-08-03T03:35:37.155Z,99.60
2022-08-03T03:38:06.744Z,99.40
2022-08-03T03:40:35.655Z,99.30
2022-08-03T03:43:03.264Z,99.90
2022-08-03T03:45:31.454Z,99.90
2022-08-03T03:48:00.488Z,99.90
2022-08-03T03:50:28.285Z,99.40
2022-08-03T03:52:55.033Z,99.50
2022-08-03T03:55:21.768Z,99.60
2022-08-03T03:57:48.488Z,99.90
2022-08-03T04:00:17.320Z,99.90
2022-08-03T04:02:45.132Z,99.90
2022-08-03T04:05:31.586Z,99.90
2022-08-03T04:08:22.396Z,99.70
2022-08-03T04:11:10.253Z,99.70
2022-08-03T04:13:38.645Z,99.80
2022-08-03T04:16:07.724Z,99.90
2022-08-03T04:18:37.601Z,99.90
2022-08-03T04:21:08.500Z,99.90
2022-08-03T04:23:40.841Z,99.90
2022-08-03T04:26:12.189Z,99.90
2022-08-03T04:28:41.578Z,99.90
2022-08-03T04:31:08.375Z,99.90
2022-08-03T04:33:38.538Z,99.90
2022-08-03T04:36:08.703Z,99.90
2022-08-03T04:39:13.442Z,99.90
2022-08-03T04:42:08.242Z,99.90
2022-08-03T04:44:29.741Z,99.90
2022-08-03T04:46:57.905Z,99.90
2022-08-03T04:49:25.266Z,99.90
2022-08-03T04:51:53.207Z,99.90
2022-08-03T04:54:19.959Z,99.90
2022-08-03T04:56:46.600Z,99.90
2022-08-03T04:59:13.419Z,99.90
2022-08-03T05:01:42.049Z,99.90
2022-08-03T05:04:09.258Z,99.90
2022-08-03T05:06:36.307Z,99.90
2022-08-03T05:09:08.485Z,99.90
2022-08-03T05:11:35.454Z,99.90
2022-08-03T05:14:02.194Z,99.90
2022-08-03T05:16:29.239Z,99.90
2022-08-03T05:18:55.988Z,99.90
2022-08-03T05:21:22.923Z,99.90
2022-08-03T05:23:49.978Z,99.90
2022-08-03T05:26:17.018Z,99.90
2022-08-03T05:28:51.278Z,99.90
2022-08-03T05:31:18.999Z,99.90
2022-08-03T05:33:46.046Z,99.90
2022-08-03T05:36:13.095Z,99.90
2022-08-03T05:38:40.041Z,99.90
2022-08-03T05:41:21.155Z,99.90
2022-08-03T05:43:54.118Z,99.90
2022-08-03T05:46:25.042Z,99.90
2022-08-03T05:48:52.379Z,99.90
2022-08-03T05:54:11.472Z,99.90
2022-08-03T05:56:41.078Z,99.90
2022-08-03T05:59:35.790Z,99.90
2022-08-03T06:04:45.848Z,99.90
2022-08-03T06:07:13.013Z,99.90
2022-08-03T06:10:36.527Z,99.90
2022-08-03T06:12:29.221Z,99.90
2022-08-03T06:17:51.361Z,99.90
2022-08-03T06:20:20.490Z,99.90
2022-08-03T06:22:51.337Z,99.90
2022-08-03T06:25:27.766Z,99.40
2022-08-03T06:27:55.331Z,99.90
2022-08-03T06:30:22.363Z,99.50
2022-08-03T06:32:51.758Z,99.70
2022-08-03T06:35:19.826Z,98.80
2022-08-03T06:37:49.042Z,99.20
2022-08-03T06:40:24.593Z,98.80
2022-08-03T06:42:51.643Z,98.80
2022-08-03T06:45:18.784Z,98.90
2022-08-03T06:47:45.945Z,98.80
2022-08-03T06:50:16.754Z,98.70
2022-08-03T06:52:44.427Z,97.90
2022-08-03T06:55:11.450Z,97.50
2022-08-03T07:03:19.809Z,97.70
2022-08-03T07:05:50.810Z,97.20
2022-08-03T07:08:18.374Z,96.70
2022-08-03T07:11:00.762Z,97.10
2022-08-03T07:13:27.481Z,96.60
2022-08-03T07:15:56.064Z,96.20
2022-08-03T07:18:29.878Z,95.40
2022-08-03T07:20:57.838Z,95.00
2022-08-03T07:23:25.559Z,95.10
2022-08-03T07:25:52.431Z,95.00
2022-08-03T07:28:20.103Z,93.70
2022-08-03T07:30:47.093Z,93.70
2022-08-03T07:33:14.194Z,93.20
2022-08-03T07:35:40.835Z,92.50
2022-08-03T07:38:07.580Z,91.70
2022-08-03T07:40:34.685Z,92.00
2022-08-03T07:43:03.187Z,92.60
2022-08-03T07:45:31.687Z,92.60
2022-08-03T07:47:58.482Z,92.10
2022-08-03T07:50:25.493Z,92.10
2022-08-03T07:52:53.960Z,91.70
2022-08-03T07:55:22.755Z,91.80
2022-08-03T07:58:09.960Z,91.90
2022-08-03T08:00:36.976Z,91.90
2022-08-03T08:03:04.823Z,92.00
2022-08-03T08:05:31.877Z,91.70
2022-08-03T08:07:58.579Z,91.20
2022-08-03T08:10:25.588Z,91.40
2022-08-03T08:12:52.866Z,91.60
2022-08-03T08:15:19.619Z,90.90
2022-08-03T08:17:49.954Z,90.90
2022-08-03T08:20:27.663Z,90.80
2022-08-03T08:23:01.184Z,91.20
2022-08-03T08:25:29.171Z,91.10
2022-08-03T08:28:29.587Z,91.00
2022-08-03T08:30:42.556Z,90.30
2022-08-03T08:33:15.697Z,90.70
2022-08-03T08:35:51.206Z,90.00
2022-08-03T08:38:17.941Z,90.40
2022-08-03T08:40:44.843Z,87.20
2022-08-03T08:43:11.533Z,87.60
2022-08-03T08:45:38.461Z,86.70
2022-08-03T08:48:08.321Z,85.50
2022-08-03T08:50:38.736Z,86.60
2022-08-03T08:53:11.435Z,86.00
2022-08-03T08:55:58.476Z,85.30
2022-08-03T08:58:30.261Z,84.60
2022-08-03T09:00:57.236Z,84.50
2022-08-03T09:03:30.241Z,83.70
2022-08-03T09:06:00.556Z,84.70
2022-08-03T09:08:27.561Z,83.80
2022-08-03T09:10:54.302Z,84.10
2022-08-03T09:13:21.212Z,82.90
2022-08-03T09:16:00.949Z,81.80
2022-08-03T09:18:32.566Z,82.60
2022-08-03T09:21:32.779Z,81.40
2022-08-03T09:24:04.883Z,80.00
2022-08-03T09:26:37.881Z,80.00
2022-08-03T09:29:14.448Z,79.40
2022-08-03T09:31:46.886Z,79.90
2022-08-03T09:34:16.021Z,78.30
2022-08-03T09:36:50.442Z,77.00
2022-08-03T09:39:40.190Z,76.00
2022-08-03T09:42:14.686Z,77.40
2022-08-03T09:44:46.469Z,75.80
2022-08-03T09:47:15.152Z,74.30
2022-08-03T09:49:56.625Z,74.40
2022-08-03T09:52:49.317Z,73.80
2022-08-03T09:56:30.422Z,73.90
2022-08-03T09:58:10.134Z,73.20
2022-08-03T10:01:04.104Z,72.40
2022-08-03T10:03:34.993Z,71.00
2022-08-03T10:06:19.708Z,72.60
2022-08-03T10:08:47.054Z,72.80
2022-08-03T10:11:30.461Z,71.80
2022-08-03T10:13:58.039Z,70.50
2022-08-03T10:16:32.939Z,71.20
2022-08-03T10:18:59.918Z,70.50
2022-08-03T10:21:32.385Z,71.60
2022-08-03T10:24:02.213Z,71.20
2022-08-03T10:26:32.424Z,71.40
2022-08-03T10:29:02.815Z,70.70
2022-08-03T10:31:38.486Z,70.70
2022-08-03T10:34:27.046Z,71.10
2022-08-03T10:36:58.718Z,71.10
2022-08-03T10:39:29.270Z,71.00
2022-08-03T10:41:58.727Z,70.50
2022-08-03T10:44:33.670Z,69.20
2022-08-03T10:47:01.089Z,68.60
2022-08-03T10:49:34.557Z,68.80
2022-08-03T10:52:12.988Z,67.70
2022-08-03T10:55:09.991Z,69.10
2022-08-03T10:57:56.636Z,68.00
2022-08-03T11:00:27.886Z,67.80
2022-08-03T11:03:09.442Z,67.60
2022-08-03T11:05:49.083Z,67.70
2022-08-03T11:08:36.818Z,67.90
2022-08-03T11:11:28.505Z,67.30
2022-08-03T11:14:08.316Z,67.10
2022-08-03T11:16:46.607Z,65.60
2022-08-03T11:19:15.749Z,68.40
2022-08-03T11:21:48.445Z,66.80
2022-08-03T11:24:33.964Z,67.60
2022-08-03T11:27:18.994Z,67.30
2022-08-03T11:30:10.580Z,67.00
2022-08-03T11:32:40.255Z,65.40
2022-08-03T11:35:16.245Z,65.20
2022-08-03T11:38:03.208Z,64.50
2022-08-03T11:40:51.066Z,64.70
2022-08-03T11:43:26.733Z,64.30
2022-08-03T11:46:07.712Z,65.10
2022-08-03T11:48:43.122Z,64.70
2022-08-03T11:51:27.577Z,64.40
2022-08-03T11:54:00.267Z,63.10
2022-08-03T11:56:27.943Z,62.70
2022-08-03T11:59:18.754Z,63.30
2022-08-03T12:01:44.143Z,63.20
2022-08-03T12:04:11.658Z,63.40
2022-08-03T12:06:56.679Z,62.80
2022-08-03T12:09:23.408Z,62.10
2022-08-03T12:12:00.523Z,60.90
2022-08-03T12:14:50.296Z,60.50
2022-08-03T12:17:16.200Z,61.10
2022-08-03T12:19:43.852Z,60.70
2022-08-03T12:22:10.583Z,60.40
2022-08-03T12:24:42.467Z,59.80
2022-08-03T12:27:09.289Z,59.50
2022-08-03T12:29:36.532Z,59.90
2022-08-03T12:32:03.449Z,59.80
2022-08-03T12:34:49.505Z,60.40
2022-08-03T12:37:22.685Z,60.50
2022-08-03T12:40:02.365Z,59.90
2022-08-03T12:42:37.406Z,60.40
2022-08-03T12:45:24.682Z,60.40
2022-08-03T12:47:51.280Z,60.30
2022-08-03T12:50:29.269Z,60.20
2022-08-03T12:52:57.527Z,60.10
2022-08-03T12:55:25.574Z,59.70
2022-08-03T12:57:52.170Z,59.60
2022-08-03T13:00:28.594Z,59.10
2022-08-03T13:03:26.559Z,60.00
2022-08-03T13:05:47.189Z,58.30
2022-08-03T13:08:21.971Z,59.30
2022-08-03T13:10:48.818Z,58.30
2022-08-03T13:13:15.667Z,58.70
2022-08-03T13:15:47.742Z,59.20
2022-08-03T13:18:17.372Z,58.70
2022-08-03T13:20:44.408Z,60.20
2022-08-03T13:23:15.541Z,60.30
2022-08-03T13:25:55.758Z,59.60
2022-08-03T13:28:23.260Z,58.90
2022-08-03T13:30:49.975Z,59.30
2022-08-03T13:33:16.746Z,59.90
2022-08-03T13:35:43.380Z,60.40
2022-08-03T13:38:10.198Z,60.80
2022-08-03T13:40:41.482Z,61.80
2022-08-03T13:43:08.302Z,62.40
2022-08-03T13:45:35.146Z,62.70
2022-08-03T13:48:01.877Z,63.80
2022-08-03T13:50:28.630Z,62.80
2022-08-03T13:52:55.372Z,62.30
2022-08-03T13:55:22.367Z,63.10
2022-08-03T13:58:03.233Z,64.00
2022-08-03T14:00:34.230Z,62.30
2022-08-03T14:03:10.849Z,62.10
2022-08-03T14:05:40.139Z,63.20
2022-08-03T14:08:07.979Z,63.30
2022-08-03T14:10:45.264Z,63.70
2022-08-03T14:13:17.732Z,63.30
2022-08-03T14:15:49.972Z,63.30
2022-08-03T14:18:29.062Z,64.40
2022-08-03T14:21:05.562Z,63.80
2022-08-03T14:23:34.383Z,64.80
2022-08-03T14:26:01.141Z,63.40
2022-08-03T14:28:28.721Z,63.30
2022-08-03T14:30:56.277Z,63.20
2022-08-03T14:33:23.573Z,63.10
2022-08-03T14:35:51.634Z,63.30
2022-08-03T14:38:18.723Z,63.40
2022-08-03T14:40:46.388Z,63.70
2022-08-03T14:43:13.305Z,62.70
2022-08-03T14:45:40.793Z,63.60
2022-08-03T14:50:30.252Z,64.20
2022-08-03T14:50:55.301Z,64.60
2022-08-03T14:53:22.102Z,63.80
2022-08-03T14:55:50.618Z,63.10
2022-08-03T14:58:22.980Z,63.40
2022-08-03T15:00:51.453Z,63.10
2022-08-03T15:03:24.419Z,62.80
2022-08-03T15:05:53.112Z,62.90
2022-08-03T15:08:20.598Z,63.30
2022-08-03T15:10:47.971Z,63.00
2022-08-03T15:13:16.860Z,62.80
2022-08-03T15:15:43.796Z,63.90
2022-08-03T15:18:10.743Z,63.00
2022-08-03T15:20:44.525Z,64.80
2022-08-03T15:23:12.718Z,62.60
2022-08-03T15:26:28.905Z,63.30
2022-08-03T15:28:26.137Z,62.90
2022-08-03T15:30:53.140Z,63.30
2022-08-03T15:33:20.174Z,63.60
2022-08-03T15:35:47.567Z,64.10
2022-08-03T15:38:14.625Z,63.30
2022-08-03T15:40:41.765Z,63.50
2022-08-03T15:43:08.411Z,65.10
2022-08-03T15:45:35.321Z,64.00
2022-08-03T15:48:03.441Z,63.50
2022-08-03T15:50:30.187Z,64.10
2022-08-03T15:52:57.019Z,63.50
2022-08-03T15:55:23.763Z,64.30
2022-08-03T15:59:09.458Z,64.20
2022-08-03T16:00:37.505Z,63.80
2022-08-03T16:03:04.717Z,64.70
2022-08-03T16:05:32.073Z,64.20
2022-08-03T16:08:03.466Z,63.80
2022-08-03T16:10:30.936Z,64.50
2022-08-03T16:13:00.718Z,64.70
2022-08-03T16:15:27.512Z,64.00
2022-08-03T16:17:54.253Z,64.00
2022-08-03T16:20:28.949Z,64.30
2022-08-03T16:23:00.395Z,65.00
2022-08-03T16:25:28.296Z,64.60
2022-08-03T16:28:00.303Z,64.00
2022-08-03T16:30:34.259Z,63.70
2022-08-03T16:33:01.010Z,64.70
2022-08-03T16:35:27.781Z,64.00
2022-08-03T16:37:56.415Z,64.50
2022-08-03T16:40:24.979Z,65.30
2022-08-03T16:42:51.707Z,64.90
2022-08-03T16:45:18.342Z,65.20
2022-08-03T16:47:44.963Z,65.40
2022-08-03T16:50:19.117Z,65.30
2022-08-03T16:52:47.436Z,64.30
2022-08-03T16:55:18.278Z,64.80
2022-08-03T16:57:59.819Z,65.40
2022-08-03T17:00:34.451Z,65.50
2022-08-03T17:03:18.928Z,64.80
2022-08-03T17:05:49.714Z,64.90
2022-08-03T17:08:27.002Z,64.20
2022-08-03T17:10:55.009Z,65.20
2022-08-03T17:13:22.833Z,66.20
2022-08-03T17:15:58.067Z,66.00
2022-08-03T17:18:29.814Z,65.50
2022-08-03T17:20:58.572Z,65.70
2022-08-03T17:26:44.790Z,65.40
2022-08-03T17:29:13.369Z,66.10
2022-08-03T17:31:48.700Z,66.00
2022-08-03T17:34:17.936Z,66.50
2022-08-03T17:39:58.761Z,66.10
2022-08-03T17:42:29.320Z,66.70
2022-08-03T17:47:58.160Z,67.10
2022-08-03T17:50:34.597Z,67.60
2022-08-03T17:53:15.630Z,67.50
2022-08-03T17:56:04.904Z,67.30
2022-08-03T17:58:41.452Z,66.40
2022-08-03T18:04:29.905Z,69.40
2022-08-03T18:06:59.391Z,69.60
2022-08-03T18:12:26.982Z,69.90
2022-08-03T18:15:01.197Z,70.80
2022-08-03T18:17:55.857Z,71.10
2022-08-03T18:20:32.333Z,71.60
2022-08-03T18:23:06.010Z,72.40
2022-08-03T18:25:45.695Z,72.90
2022-08-03T18:28:23.090Z,73.80
2022-08-03T18:30:54.744Z,74.20
2022-08-03T18:34:19.023Z,74.40
2022-08-03T18:36:17.878Z,74.50
2022-08-03T18:38:47.552Z,74.70
2022-08-03T18:41:21.933Z,74.60
2022-08-03T18:44:08.087Z,74.80
2022-08-03T18:47:07.295Z,75.30
2022-08-03T18:50:13.430Z,75.30
2022-08-03T18:52:53.185Z,75.50
2022-08-03T18:55:35.560Z,76.20
2022-08-03T18:58:30.202Z,75.20
2022-08-03T19:02:00.087Z,75.10
2022-08-03T19:04:45.364Z,75.60
2022-08-03T19:07:24.254Z,75.80
2022-08-03T19:09:54.568Z,76.10
2022-08-03T19:12:39.520Z,76.30
2022-08-03T19:15:13.017Z,76.50
2022-08-03T19:17:42.621Z,77.10
2022-08-03T19:20:24.992Z,77.00
2022-08-03T19:22:52.823Z,76.90
2022-08-03T19:25:19.634Z,76.80
2022-08-03T19:27:48.113Z,77.10
2022-08-03T19:30:35.541Z,77.60
2022-08-03T19:33:11.932Z,77.60
2022-08-03T19:35:52.047Z,77.30
2022-08-03T19:38:28.516Z,77.50
2022-08-03T19:40:59.818Z,77.70
2022-08-03T19:43:53.097Z,77.70
2022-08-03T19:46:22.450Z,77.90
2022-08-03T19:48:59.328Z,77.80
2022-08-03T19:52:01.628Z,78.00
2022-08-03T19:54:29.280Z,77.80
2022-08-03T19:56:58.169Z,78.10
2022-08-03T19:59:26.460Z,78.20
2022-08-03T20:01:53.667Z,78.20
2022-08-03T20:04:21.408Z,78.20
2022-08-03T20:06:49.625Z,78.30
2022-08-03T20:09:17.229Z,78.50
2022-08-03T20:11:45.267Z,79.30
2022-08-03T20:14:13.320Z,79.30
2022-08-03T20:16:48.081Z,79.20
2022-08-03T20:19:16.715Z,79.20
2022-08-03T20:21:48.546Z,79.20
2022-08-03T20:24:23.373Z,79.50
2022-08-03T20:26:54.870Z,79.80
2022-08-03T20:30:05.330Z,79.70
2022-08-03T20:32:28.061Z,79.70
2022-08-03T20:34:54.697Z,79.80
2022-08-03T20:37:22.222Z,79.90
2022-08-03T20:39:49.577Z,80.10
2022-08-03T20:42:21.556Z,80.80
2022-08-03T20:45:04.531Z,80.20
2022-08-03T20:47:35.815Z,80.30
2022-08-03T20:50:04.124Z,80.50
2022-08-03T20:52:34.777Z,80.50
2022-08-03T20:55:12.928Z,80.50
2022-08-03T20:57:42.837Z,80.50
2022-08-03T21:00:17.831Z,81.20
2022-08-03T21:02:44.776Z,81.80
2022-08-03T21:05:11.774Z,82.60
2022-08-03T21:08:05.011Z,82.10
2022-08-03T21:10:35.790Z,82.20
2022-08-03T21:13:05.926Z,70.40
2022-08-03T21:13:27.859Z,83.20
2022-08-03T21:16:11.708Z,83.30
2022-08-03T21:18:51.246Z,83.50
2022-08-03T21:21:23.221Z,83.80
2022-08-03T21:23:54.146Z,83.60
2022-08-03T21:26:23.430Z,83.80
2022-08-03T21:28:51.963Z,83.70
2022-08-03T21:31:25.189Z,83.90
2022-08-03T21:33:58.579Z,84.20
2022-08-03T21:36:30.693Z,84.00
2022-08-03T21:38:58.758Z,84.00
2022-08-03T21:41:28.046Z,83.50
2022-08-03T21:43:54.892Z,84.10
2022-08-03T21:46:22.502Z,83.70
2022-08-03T21:48:56.591Z,84.20
2022-08-03T21:51:43.343Z,84.30
2022-08-03T21:54:13.340Z,84.10
2022-08-03T21:56:47.199Z,84.00
2022-08-03T21:59:19.270Z,84.30
2022-08-03T22:01:49.044Z,84.40
2022-08-03T22:04:51.073Z,84.40
2022-08-03T22:07:08.038Z,84.60
2022-08-03T22:09:36.268Z,84.50
2022-08-03T22:12:03.693Z,85.00
2022-08-03T22:14:33.231Z,85.00
2022-08-03T22:17:00.590Z,84.70
2022-08-03T22:19:31.380Z,84.70
2022-08-03T22:21:59.651Z,84.80
2022-08-03T22:24:30.413Z,84.40
2022-08-03T22:27:19.923Z,84.90
2022-08-03T22:29:47.531Z,84.70
2022-08-03T22:32:14.669Z,84.30
2022-08-03T22:34:45.617Z,85.00
2022-08-03T22:37:13.890Z,84.70
2022-08-03T22:39:43.087Z,85.00
2022-08-03T22:42:10.230Z,84.40
2022-08-03T22:44:37.276Z,84.60
2022-08-03T22:47:05.565Z,84.70
2022-08-03T22:49:32.827Z,83.50
2022-08-03T22:52:01.430Z,83.40
2022-08-03T22:54:28.292Z,84.10
2022-08-03T22:56:55.208Z,84.60
2022-08-03T22:59:40.935Z,83.70
2022-08-03T23:02:21.185Z,83.70
2022-08-03T23:04:57.413Z,83.60
2022-08-03T23:07:31.536Z,84.10
2022-08-03T23:09:59.729Z,84.20
2022-08-03T23:12:29.547Z,84.70
2022-08-03T23:15:01.795Z,84.60
2022-08-03T23:17:31.699Z,84.30
2022-08-03T23:20:06.344Z,84.20
2022-08-03T23:22:39.518Z,84.80
2022-08-03T23:25:10.300Z,83.90
2022-08-03T23:27:40.575Z,84.40
2022-08-03T23:30:10.149Z,84.90
2022-08-03T23:32:37.790Z,84.30
2022-08-03T23:36:29.553Z,84.10
2022-08-03T23:38:22.681Z,84.30
2022-08-03T23:40:51.329Z,84.60
2022-08-03T23:43:44.818Z,84.30
2022-08-03T23:46:07.410Z,84.70
2022-08-03T23:48:34.351Z,84.10
2022-08-03T23:51:09.710Z,85.00
2022-08-03T23:53:43.317Z,84.70
2022-08-03T23:56:19.475Z,85.10
2022-08-03T23:59:21.934Z,85.00
